METAR AND TAF INFORMATION
METAR FOR SBLO
ADDS - METARS form results

(0707 UTC 09 July 2020)
Data provider http://aviationweather.gov/metar/data/
 
Forecast for: SBLO (LONDRINA AIRPORT, BR)
Text: TAF SBLO 090300Z 0906/0918 22007KT CAVOK TN09/0908Z TX23/0918Z
Forecast period: 0600 to 1800 UTC 09 July 2020
Forecast type: FROM: standard forecast or significant change
Winds: from the SW (220 degrees) at 8 MPH (7 knots; 3.6 m/s)
Visibility: 6 or more miles 10+ km)
Ceiling: unknown
Clouds: missing
Weather: no significant weather forecast for this period
Text: PROB40
Forecast period: 0800 to 1100 UTC 09 July 2020
Forecast type: TEMPORARY: The following changes expected for less than half the time period
Visibility: 1.24 miles (2.00 km)
Ceiling: 500 feet AGL
Clouds: broken clouds at 500 feet AGL
Weather: BR  (mist)

 AIRPORT MAP


 RUNWAY INFORMATION
Runway 13 Runway length 6890 ft Runway width 148 ft
Runway elevation 0 ft Runway displaced threshold 0 ft Runway heading 0
Runway 31 Runway length 6890 ft Runway width 148 ft
Runway elevation 0 ft Runway displaced threshold 0 ft Runway heading 0

 AIRPORT FREQUENCIES
Type APP Name APP Frequency 129.7 MHZ
Type ATIS Name ATIS Frequency 127.675 MHZ
Type TWR Name TWR Frequency 118.4 MHZ

 AIRPORT NEAR NAVIGATION AIDS
Type VOR-DME Name Londrina Frequency 112400 KHZ
Type NDB Name Londrina Frequency 365 KHZ
Type NDB Name Guaruja Frequency 305 KHZ



Powered by Virtual Airlines Manager [v2.6.2]